Time;durP1;ratioP1;P1;durP2;ratioP2;P2;SDS_P1;SDS_P2;PMS_P1;PMS_P2;Temp;Humidity;BMP_temperature;BMP_pressure;BME280_temperature;BME280_humidity;BME280_pressure;Samples;Min_cycle;Max_cycle;Signal;HPM_P1;HPM_P2
2022/04/17 00:02:01;;;;;;;6.82;5.70;;;7.40;63.50;;;;;;2117620;67;20686;-75
2022/04/17 00:04:47;;;;;;;;;;;7.40;63.70;;;;;;2103527;68;20734;-76
2022/04/17 00:07:34;;;;;;;6.90;5.60;;;7.30;64.10;;;;;;2104871;68;20299;-76
2022/04/17 00:10:19;;;;;;;6.55;5.15;;;7.30;63.60;;;;;;2098749;68;20211;-76
2022/04/17 00:13:04;;;;;;;6.95;5.07;;;7.30;64.50;;;;;;2111843;67;20434;-76
2022/04/17 00:15:46;;;;;;;5.30;4.80;;;7.30;63.90;;;;;;2111920;67;20927;-75
2022/04/17 00:18:29;;;;;;;6.10;5.30;;;7.30;64.40;;;;;;2127172;66;20240;-75
2022/04/17 00:21:17;;;;;;;9.50;5.75;;;7.30;64.40;;;;;;2160861;66;20247;-75
2022/04/17 00:23:59;;;;;;;6.95;5.10;;;7.20;64.50;;;;;;2154379;66;20266;-75
2022/04/17 00:26:43;;;;;;;7.05;5.70;;;7.20;64.70;;;;;;2141969;66;20332;-75
2022/04/17 00:29:28;;;;;;;8.25;5.72;;;7.30;65.00;;;;;;2149578;66;20173;-75
2022/04/17 00:32:12;;;;;;;7.28;5.40;;;7.20;65.00;;;;;;2168192;65;20160;-76
2022/04/17 00:34:57;;;;;;;6.93;5.90;;;7.20;65.00;;;;;;2173681;65;20312;-76
2022/04/17 00:37:39;;;;;;;6.13;5.43;;;7.10;65.20;;;;;;2156503;66;20736;-75
2022/04/17 00:40:22;;;;;;;6.28;5.65;;;7.10;66.00;;;;;;2132108;67;20167;-75
2022/04/17 00:43:30;;;;;;;7.13;5.35;;;7.10;65.50;;;;;;2120000;67;20257;-75
2022/04/17 00:46:11;;;;;;;6.10;5.28;;;7.00;66.00;;;;;;2121089;67;20842;-75
2022/04/17 00:48:54;;;;;;;6.35;5.15;;;6.50;65.80;;;;;;2132453;67;20352;-75
2022/04/17 00:51:42;;;;;;;9.07;5.72;;;6.90;66.20;;;;;;2124912;67;20295;-75
2022/04/17 00:54:37;;;;;;;7.40;5.65;;;7.20;66.80;;;;;;2125764;67;20619;-76
2022/04/17 00:57:20;;;;;;;6.22;5.30;;;6.80;67.00;;;;;;2123402;67;20744;-74
2022/04/17 01:00:07;;;;;;;7.15;5.68;;;6.80;67.40;;;;;;2116812;67;20177;-76
2022/04/17 01:02:50;;;;;;;9.25;6.32;;;6.70;67.40;;;;;;2125804;67;20347;-74
2022/04/17 01:05:33;;;;;;;5.90;5.22;;;6.70;67.90;;;;;;2136295;66;20318;-75
2022/04/17 01:08:20;;;;;;;7.85;5.78;;;6.60;68.00;;;;;;2152556;66;20320;-76
2022/04/17 01:11:06;;;;;;;8.40;5.10;;;6.60;68.60;;;;;;2156393;66;20166;-75
2022/04/17 01:13:50;;;;;;;7.95;5.78;;;6.50;68.70;;;;;;2146912;66;20329;-75
2022/04/17 01:16:32;;;;;;;7.20;5.28;;;6.50;69.10;;;;;;2165806;65;20215;-75
2022/04/17 01:19:16;;;;;;;6.60;5.63;;;6.50;69.50;;;;;;2161972;66;20259;-73
2022/04/17 01:21:58;;;;;;;7.57;5.45;;;6.40;70.00;;;;;;2148931;66;20183;-75
2022/04/17 01:27:40;;;;;;;7.32;5.68;;;6.30;70.70;;;;;;2162883;66;20327;-75
2022/04/17 01:30:22;;;;;;;6.53;5.60;;;6.40;71.50;;;;;;2169293;65;20362;-75
2022/04/17 01:33:08;;;;;;;6.35;5.32;;;6.20;71.60;;;;;;2162834;66;20255;-74
2022/04/17 01:35:50;;;;;;;8.25;5.65;;;6.20;72.20;;;;;;2168133;66;20429;-75
2022/04/17 01:38:38;;;;;;;8.63;5.28;;;6.20;72.60;;;;;;2143003;66;20267;-74
2022/04/17 01:41:24;;;;;;;8.05;5.53;;;6.20;73.10;;;;;;2123884;67;20193;-75
2022/04/17 01:44:06;;;;;;;8.45;5.82;;;6.10;73.40;;;;;;2129963;67;20385;-76
2022/04/17 01:46:48;;;;;;;7.05;5.55;;;6.10;74.10;;;;;;2118825;67;20260;-75
2022/04/17 01:49:30;;;;;;;8.82;5.43;;;6.10;74.70;;;;;;2118690;67;20207;-75
2022/04/17 01:52:12;;;;;;;6.50;5.75;;;6.50;75.50;;;;;;2117699;67;20731;-75
2022/04/17 01:54:56;;;;;;;7.50;5.03;;;6.10;75.50;;;;;;2121365;67;20236;-75
2022/04/17 01:57:41;;;;;;;7.65;5.68;;;6.10;75.70;;;;;;2125803;67;20383;-74
2022/04/17 02:00:26;;;;;;;6.97;5.47;;;6.00;75.80;;;;;;2141295;66;20162;-75
2022/04/17 02:03:08;;;;;;;6.80;5.80;;;6.00;76.20;;;;;;2134141;66;20202;-76
2022/04/17 02:05:52;;;;;;;9.40;5.35;;;6.00;76.50;;;;;;2155068;66;20385;-75
2022/04/17 02:08:39;;;;;;;7.13;5.80;;;6.00;76.70;;;;;;2136534;66;20175;-75
2022/04/17 02:11:22;;;;;;;6.95;5.40;;;5.90;77.10;;;;;;2134379;67;20264;-74
2022/04/17 02:14:05;;;;;;;5.75;4.88;;;5.90;77.50;;;;;;2141657;66;20265;-75
2022/04/17 02:16:47;;;;;;;7.00;6.25;;;5.90;77.90;;;;;;2135612;66;20319;-74
2022/04/17 02:19:29;;;;;;;7.57;5.50;;;5.90;78.00;;;;;;2136817;67;20253;-76
2022/04/17 02:22:11;;;;;;;8.43;5.35;;;5.90;78.60;;;;;;2129757;67;20248;-75
2022/04/17 02:24:54;;;;;;;6.82;5.45;;;5.80;78.80;;;;;;2119178;67;20336;-76
2022/04/17 02:27:41;;;;;;;7.45;5.47;;;5.80;79.20;;;;;;2116572;67;20184;-76
2022/04/17 02:30:23;;;;;;;6.40;5.68;;;5.80;79.70;;;;;;2126968;67;20188;-76
2022/04/17 02:33:05;;;;;;;7.85;5.75;;;5.70;80.00;;;;;;2119781;67;20173;-76
2022/04/17 02:35:49;;;;;;;7.28;6.10;;;5.70;80.60;;;;;;2114268;67;20210;-75
2022/04/17 02:38:33;;;;;;;7.20;5.53;;;5.70;81.00;;;;;;2134336;67;20320;-75
2022/04/17 02:41:15;;;;;;;6.82;6.00;;;5.70;81.40;;;;;;2133539;67;20246;-74
2022/04/17 02:43:56;;;;;;;8.45;6.20;;;5.60;81.90;;;;;;2132325;67;20201;-74
2022/04/17 02:49:43;;;;;;;8.68;6.18;;;5.60;83.10;;;;;;2118121;67;20319;-76
2022/04/17 02:52:28;;;;;;;10.48;5.30;;;5.50;83.40;;;;;;2127939;67;20765;-75
2022/04/17 02:55:10;;;;;;;7.32;5.80;;;5.50;83.70;;;;;;2142027;66;20270;-75
2022/04/17 02:57:52;;;;;;;11.60;6.65;;;5.50;84.30;;;;;;2141240;66;20343;-74
2022/04/17 03:05:35;;;;;;;6.90;5.75;;;5.50;84.90;;;;;;2142176;67;20179;-75
2022/04/17 03:06:37;;;;;;;7.63;6.15;;;5.50;85.60;;;;;;2139666;67;20730;-75
2022/04/17 03:09:19;;;;;;;8.88;6.25;;;5.50;86.10;;;;;;2132567;67;20342;-75
2022/04/17 03:12:01;;;;;;;8.68;6.53;;;5.50;86.20;;;;;;2137892;66;20417;-76
2022/04/17 03:14:46;;;;;;;7.60;6.03;;;5.50;86.40;;;;;;2153209;66;20422;-75
2022/04/17 03:17:28;;;;;;;11.05;7.00;;;5.50;86.70;;;;;;2132031;67;20216;-76
2022/04/17 03:20:10;;;;;;;8.40;6.30;;;5.50;86.80;;;;;;2137902;66;20178;-73
2022/04/17 03:22:53;;;;;;;10.25;6.88;;;5.50;87.30;;;;;;2137483;66;20215;-74
2022/04/17 03:25:36;;;;;;;8.73;6.95;;;5.40;87.60;;;;;;2132738;67;20389;-76
2022/04/17 03:28:18;;;;;;;9.23;6.18;;;5.40;88.10;;;;;;2124565;67;20173;-75
2022/04/17 03:31:00;;;;;;;8.13;7.00;;;5.40;89.20;;;;;;2124897;67;20531;-76
2022/04/17 03:33:45;;;;;;;7.97;6.82;;;5.70;89.30;;;;;;2125363;67;20211;-75
2022/04/17 03:36:26;;;;;;;11.43;8.23;;;5.30;89.40;;;;;;2124125;67;20325;-76
2022/04/17 03:39:10;;;;;;;9.23;7.40;;;5.30;90.00;;;;;;2138557;67;20407;-75
2022/04/17 03:41:54;;;;;;;11.65;8.50;;;5.20;90.20;;;;;;2158356;66;20185;-76
2022/04/17 03:44:36;;;;;;;12.93;7.70;;;5.20;90.50;;;;;;2149462;66;20225;-75
2022/04/17 03:47:18;;;;;;;9.18;7.20;;;5.10;90.70;;;;;;2140484;66;20352;-75
2022/04/17 03:50:00;;;;;;;10.50;8.35;;;5.10;90.90;;;;;;2142651;66;20178;-75
2022/04/17 03:52:47;;;;;;;9.40;7.78;;;5.10;91.00;;;;;;2140439;66;20230;-74
2022/04/17 03:55:29;;;;;;;12.48;8.40;;;5.10;91.30;;;;;;2120369;67;20198;-77
2022/04/17 03:58:11;;;;;;;9.98;7.65;;;5.00;91.50;;;;;;2128015;67;20690;-74
2022/04/17 04:00:53;;;;;;;12.80;7.85;;;5.00;91.70;;;;;;2131144;67;20284;-73
2022/04/17 04:03:37;;;;;;;11.00;8.20;;;4.90;91.90;;;;;;2131892;67;20784;-76
2022/04/17 04:06:21;;;;;;;9.43;7.70;;;4.90;92.10;;;;;;2132682;67;20379;-74
2022/04/17 04:09:05;;;;;;;9.57;8.18;;;4.90;92.30;;;;;;2121671;67;20207;-74
2022/04/17 04:11:48;;;;;;;10.82;7.47;;;5.20;92.50;;;;;;2118751;67;20169;-75
2022/04/17 04:14:34;;;;;;;12.07;8.13;;;4.80;92.60;;;;;;2119023;67;20314;-75
2022/04/17 04:17:18;;;;;;;9.05;7.03;;;4.90;92.70;;;;;;2130938;67;20353;-75
2022/04/17 04:20:00;;;;;;;10.88;8.30;;;4.80;92.90;;;;;;2130531;67;20357;-76
2022/04/17 04:22:45;;;;;;;10.35;7.22;;;4.90;92.80;;;;;;2121956;67;20775;-74
2022/04/17 04:25:29;;;;;;;9.70;7.90;;;4.90;92.70;;;;;;2117836;67;20673;-74
2022/04/17 04:31:15;;;;;;;9.55;7.45;;;4.80;92.90;;;;;;2154212;66;20189;-75
2022/04/17 04:34:05;;;;;;;10.85;7.72;;;4.80;92.70;;;;;;2136878;67;20319;-75
2022/04/17 04:36:49;;;;;;;10.57;8.10;;;4.80;92.50;;;;;;2134370;67;20445;-75
2022/04/17 04:39:30;;;;;;;9.63;7.72;;;4.90;92.60;;;;;;2148897;66;20177;-75
2022/04/17 04:42:12;;;;;;;10.50;8.00;;;4.90;92.80;;;;;;2128966;66;20695;-75
2022/04/17 04:48:09;;;;;;;11.75;8.48;;;4.90;92.90;;;;;;2135843;66;20238;-76
2022/04/17 04:50:52;;;;;;;9.23;8.02;;;4.90;92.90;;;;;;2141539;66;20283;-75
2022/04/17 04:53:36;;;;;;;10.00;8.48;;;5.00;93.10;;;;;;2162514;66;20300;-75
2022/04/17 04:56:20;;;;;;;11.25;8.57;;;5.00;93.30;;;;;;2152301;66;20177;-74
2022/04/17 04:59:06;;;;;;;10.85;8.98;;;5.00;93.30;;;;;;2157493;66;20800;-75
2022/04/17 05:01:51;;;;;;;11.63;8.60;;;5.00;93.60;;;;;;2156588;66;20173;-75
2022/04/17 05:04:33;;;;;;;10.30;8.57;;;5.00;93.30;;;;;;2152578;66;20270;-75
2022/04/17 05:07:15;;;;;;;13.18;9.63;;;5.00;93.40;;;;;;2158091;66;20844;-75
2022/04/17 05:09:57;;;;;;;13.43;9.82;;;5.00;93.50;;;;;;2149684;66;20772;-75
2022/04/17 05:12:40;;;;;;;11.27;8.65;;;5.00;93.50;;;;;;2139095;66;20187;-76
2022/04/17 05:15:26;;;;;;;13.95;9.60;;;5.00;93.70;;;;;;2117992;67;20358;-75
2022/04/17 05:18:12;;;;;;;12.38;8.98;;;5.00;93.70;;;;;;2106049;67;20178;-75
2022/04/17 05:20:56;;;;;;;;;;;5.00;93.80;;;;;;2112692;67;20285;-75
2022/04/17 05:23:37;;;;;;;12.35;9.98;;;5.00;94.00;;;;;;2114071;67;20242;-75
2022/04/17 05:26:20;;;;;;;14.27;9.93;;;5.00;93.60;;;;;;2125620;67;20289;-76
2022/04/17 05:29:02;;;;;;;12.10;9.82;;;5.00;93.80;;;;;;2132662;67;20263;-75
2022/04/17 05:31:44;;;;;;;13.77;10.13;;;5.10;94.00;;;;;;2120622;67;20346;-74
2022/04/17 05:34:26;;;;;;;13.77;10.65;;;5.10;94.20;;;;;;2129390;67;20317;-74
2022/04/17 05:37:12;;;;;;;13.18;10.07;;;5.20;94.40;;;;;;2140420;66;20279;-75
2022/04/17 05:40:00;;;;;;;12.30;9.55;;;5.20;94.30;;;;;;2147278;66;20387;-75
2022/04/17 05:42:47;;;;;;;15.00;9.68;;;5.30;94.30;;;;;;2139920;66;20303;-75
2022/04/17 05:45:32;;;;;;;15.07;10.10;;;5.60;94.50;;;;;;2134206;67;20228;-75
2022/04/17 05:48:17;;;;;;;14.23;10.57;;;5.40;94.40;;;;;;2132333;67;20199;-76
2022/04/17 05:51:01;;;;;;;15.57;11.15;;;5.40;94.40;;;;;;2125873;67;20760;-75
2022/04/17 05:53:46;;;;;;;16.23;10.98;;;5.40;94.50;;;;;;2133755;67;20432;-74
2022/04/17 05:56:31;;;;;;;13.60;10.90;;;6.20;94.70;;;;;;2123012;67;20634;-76
2022/04/17 05:59:14;;;;;;;12.87;10.07;;;5.50;94.60;;;;;;2125085;67;20176;-76
2022/04/17 06:01:58;;;;;;;12.77;10.18;;;5.60;94.60;;;;;;2126862;67;20291;-75
2022/04/17 06:04:40;;;;;;;17.02;10.82;;;5.60;94.70;;;;;;2121845;67;20404;-75
2022/04/17 06:07:26;;;;;;;12.80;10.82;;;5.60;94.80;;;;;;2131796;67;20643;-76
2022/04/17 06:10:09;;;;;;;;;;;5.90;94.90;;;;;;2147588;66;20282;-76
2022/04/17 06:12:52;;;;;;;12.25;10.90;;;5.80;95.10;;;;;;2140707;67;20063;-74
2022/04/17 06:15:34;;;;;;;14.50;11.18;;;5.80;94.70;;;;;;2133476;67;20191;-76
2022/04/17 06:18:16;;;;;;;13.07;10.25;;;5.90;94.70;;;;;;2118647;67;20232;-76
2022/04/17 06:21:00;;;;;;;12.27;9.65;;;5.90;94.70;;;;;;2097473;68;20687;-75
2022/04/17 06:23:42;;;;;;;12.88;10.70;;;6.00;94.60;;;;;;2103275;68;20269;-75
2022/04/17 06:26:24;;;;;;;13.45;10.52;;;6.10;94.50;;;;;;2111131;67;20237;-75
2022/04/17 06:29:08;;;;;;;13.82;10.38;;;6.20;94.50;;;;;;2111345;67;20174;-76
2022/04/17 06:31:54;;;;;;;13.68;10.23;;;6.30;94.40;;;;;;2106655;68;20210;-74
2022/04/17 06:34:39;;;;;;;;;;;6.30;94.10;;;;;;2104279;67;20304;-74
2022/04/17 06:37:20;;;;;;;12.75;9.25;;;6.40;93.90;;;;;;2115690;67;20211;-75
2022/04/17 06:40:02;;;;;;;13.05;9.70;;;6.40;93.60;;;;;;2120822;67;20193;-73
2022/04/17 06:42:45;;;;;;;13.93;9.77;;;6.50;93.40;;;;;;2106083;67;20171;-75
2022/04/17 06:45:29;;;;;;;14.52;10.07;;;6.60;93.20;;;;;;2103329;68;21230;-75
2022/04/17 06:48:25;;;;;;;15.18;10.02;;;6.70;93.10;;;;;;2118410;67;20243;-75
2022/04/17 06:51:10;;;;;;;11.82;10.00;;;6.80;92.90;;;;;;2118533;67;20317;-75
2022/04/17 06:53:53;;;;;;;13.35;10.48;;;7.00;93.00;;;;;;2104146;67;20383;-75
2022/04/17 06:56:38;;;;;;;12.07;9.95;;;7.00;92.40;;;;;;2100161;67;20225;-75
2022/04/17 06:59:20;;;;;;;11.30;9.05;;;7.10;92.20;;;;;;2130213;67;20193;-75
2022/04/17 07:02:02;;;;;;;12.80;10.27;;;7.20;91.90;;;;;;2137045;66;20309;-75
2022/04/17 07:04:46;;;;;;;12.50;9.55;;;7.30;91.70;;;;;;2132616;67;20404;-75
2022/04/17 07:07:30;;;;;;;;;;;7.30;91.50;;;;;;2132325;67;20250;-75
2022/04/17 07:10:13;;;;;;;15.23;10.02;;;7.40;91.40;;;;;;2124282;67;20198;-75
2022/04/17 07:12:58;;;;;;;14.40;9.70;;;7.50;91.20;;;;;;2120035;67;20205;-77
2022/04/17 07:15:41;;;;;;;12.52;9.73;;;7.60;91.00;;;;;;2139562;67;20292;-74
2022/04/17 07:18:25;;;;;;;;;;;7.60;90.80;;;;;;2132035;67;20751;-75
2022/04/17 07:21:09;;;;;;;11.13;9.63;;;7.80;90.10;;;;;;2138272;66;20064;-75
2022/04/17 07:23:54;;;;;;;11.23;9.07;;;7.80;90.10;;;;;;2124118;67;20255;-75
2022/04/17 07:26:41;;;;;;;14.93;10.18;;;8.00;90.00;;;;;;2110651;67;20682;-75
2022/04/17 07:29:29;;;;;;;11.48;9.13;;;8.00;89.70;;;;;;2110764;67;20186;-75
2022/04/17 07:32:10;;;;;;;13.90;9.65;;;8.10;89.20;;;;;;2116938;67;20263;-76
2022/04/17 07:34:53;;;;;;;13.40;9.57;;;8.20;88.90;;;;;;2130384;67;20493;-75
2022/04/17 07:37:36;;;;;;;11.05;8.68;;;8.20;88.70;;;;;;2124459;67;20707;-75
2022/04/17 07:40:41;;;;;;;10.18;8.05;;;8.30;88.50;;;;;;2131748;67;20176;-75
2022/04/17 07:43:23;;;;;;;11.00;8.85;;;8.30;87.30;;;;;;2143119;66;20205;-76
2022/04/17 07:46:06;;;;;;;10.10;8.25;;;8.50;86.30;;;;;;2153145;66;20287;-75
2022/04/17 07:48:51;;;;;;;10.35;8.30;;;8.60;85.20;;;;;;2145861;66;20336;-76
2022/04/17 07:51:34;;;;;;;11.85;8.75;;;8.60;84.20;;;;;;2136695;67;20252;-73
2022/04/17 07:54:21;;;;;;;10.90;7.97;;;8.70;83.20;;;;;;2139700;66;20392;-74
2022/04/17 07:57:05;;;;;;;10.52;8.32;;;8.80;82.60;;;;;;2146341;66;20339;-75
2022/04/17 07:59:50;;;;;;;12.32;8.75;;;8.80;82.10;;;;;;2147361;66;21244;-75
2022/04/17 08:02:49;;;;;;;12.52;9.23;;;8.90;81.60;;;;;;2150779;66;20318;-76
2022/04/17 08:05:44;;;;;;;11.60;8.82;;;9.00;81.40;;;;;;2144724;66;20315;-76
2022/04/17 08:08:28;;;;;;;9.82;8.05;;;9.10;81.30;;;;;;2115366;67;20177;-75
2022/04/17 08:11:12;;;;;;;;;;;9.10;80.70;;;;;;2134105;67;20188;-74
2022/04/17 08:13:58;;;;;;;9.52;7.95;;;9.20;80.30;;;;;;2130609;67;20146;-75
2022/04/17 08:16:41;;;;;;;11.82;8.88;;;9.30;80.20;;;;;;2120200;67;20608;-75
2022/04/17 08:19:24;;;;;;;10.30;8.77;;;9.00;78.80;;;;;;2128490;67;20853;-76
2022/04/17 08:22:08;;;;;;;;;;;9.40;78.50;;;;;;2133606;67;20262;-75
2022/04/17 08:24:50;;;;;;;10.15;7.82;;;9.40;78.60;;;;;;2132785;67;20181;-75
2022/04/17 08:27:58;;;;;;;10.65;8.52;;;9.40;78.80;;;;;;2130482;67;20168;-76
2022/04/17 08:30:43;;;;;;;8.95;7.75;;;9.50;79.30;;;;;;2126416;67;20286;-76
2022/04/17 08:33:29;;;;;;;12.40;7.97;;;9.60;78.90;;;;;;2117159;67;20862;-75
2022/04/17 08:36:12;;;;;;;9.43;7.18;;;9.70;78.40;;;;;;2123110;67;20235;-76
2022/04/17 08:38:59;;;;;;;9.50;7.95;;;9.80;77.20;;;;;;2125356;67;20281;-75
2022/04/17 08:41:44;;;;;;;11.57;7.88;;;9.90;76.20;;;;;;2133935;67;20222;-75
2022/04/17 08:44:27;;;;;;;9.73;7.45;;;10.00;76.60;;;;;;2131802;67;20798;-77
2022/04/17 08:47:11;;;;;;;10.40;7.10;;;10.10;74.80;;;;;;2118638;67;20283;-76
2022/04/17 08:49:55;;;;;;;8.18;7.38;;;10.10;73.90;;;;;;2112693;67;20203;-75
2022/04/17 08:52:39;;;;;;;9.13;7.43;;;10.20;74.00;;;;;;2116264;67;20444;-76
2022/04/17 08:55:24;;;;;;;8.35;6.90;;;10.30;73.60;;;;;;2102181;67;20315;-75
2022/04/17 08:58:06;;;;;;;12.10;6.93;;;10.40;72.90;;;;;;2106790;67;20288;-75
2022/04/17 09:00:52;;;;;;;6.93;6.23;;;10.50;72.30;;;;;;2097538;68;20823;-75
2022/04/17 09:03:38;;;;;;;7.97;5.63;;;10.60;71.70;;;;;;2085365;68;20175;-75
2022/04/17 09:06:21;;;;;;;7.43;5.22;;;10.80;70.20;;;;;;2081757;68;20333;-75
2022/04/17 09:09:06;;;;;;;6.78;5.38;;;10.70;67.50;;;;;;2077790;68;20358;-74
2022/04/17 09:12:02;;;;;;;6.13;5.05;;;10.80;67.00;;;;;;2070949;69;20430;-75
2022/04/17 09:14:58;;;;;;;6.75;5.63;;;11.00;66.10;;;;;;2080466;68;20361;-74
2022/04/17 09:17:47;;;;;;;7.75;5.90;;;11.10;66.60;;;;;;2076994;68;20422;-75
2022/04/17 09:20:34;;;;;;;9.27;5.38;;;11.20;64.80;;;;;;2083947;68;20292;-75
2022/04/17 09:23:40;;;;;;;6.90;5.40;;;11.30;63.10;;;;;;2083488;68;20284;-80
2022/04/17 09:26:24;;;;;;;6.00;4.70;;;11.40;62.60;;;;;;2090962;68;20864;-80
2022/04/17 09:29:25;;;;;;;8.27;6.23;;;11.40;61.40;;;;;;2087686;68;20172;-75
2022/04/17 09:32:13;;;;;;;9.60;5.65;;;11.60;61.40;;;;;;2108113;67;20288;-77
2022/04/17 09:34:57;;;;;;;6.32;5.03;;;11.60;61.90;;;;;;2119817;67;20252;-76
2022/04/17 09:37:40;;;;;;;5.80;5.20;;;11.70;61.00;;;;;;2131246;67;20547;-76
2022/04/17 09:40:23;;;;;;;6.43;4.80;;;12.00;59.80;;;;;;2132619;67;20384;-77
2022/04/17 09:43:12;;;;;;;9.07;5.32;;;11.90;59.00;;;;;;2134044;66;20349;-76
2022/04/17 09:45:57;;;;;;;9.00;5.38;;;12.00;58.50;;;;;;2136437;67;20183;-78
2022/04/17 09:48:40;;;;;;;5.55;4.80;;;12.10;58.60;;;;;;2132648;67;20352;-76
2022/04/17 09:51:30;;;;;;;5.57;4.97;;;12.20;58.30;;;;;;2135679;67;20778;-77
2022/04/17 09:54:16;;;;;;;7.07;4.35;;;12.20;57.40;;;;;;2131528;67;20180;-77
2022/04/17 09:57:01;;;;;;;5.57;4.95;;;12.30;57.20;;;;;;2126102;67;20231;-77
2022/04/17 09:59:45;;;;;;;6.75;4.55;;;12.40;57.20;;;;;;2149531;66;20620;-77
2022/04/17 10:02:32;;;;;;;7.10;4.40;;;12.50;56.00;;;;;;2154731;66;20699;-78
2022/04/17 10:05:37;;;;;;;6.75;5.18;;;12.60;55.10;;;;;;2149289;66;20186;-76
2022/04/17 10:08:20;;;;;;;6.40;4.68;;;12.60;54.50;;;;;;2146563;66;20188;-75
2022/04/17 10:11:03;;;;;;;7.60;5.45;;;12.70;55.50;;;;;;2134019;67;20211;-77
2022/04/17 10:13:45;;;;;;;5.80;5.20;;;12.80;55.70;;;;;;2141366;66;20386;-76
2022/04/17 10:16:31;;;;;;;7.13;4.90;;;12.90;55.70;;;;;;2149089;66;20318;-76
2022/04/17 10:19:15;;;;;;;;;;;13.10;55.80;;;;;;2162951;66;20165;-76
2022/04/17 10:22:01;;;;;;;7.53;5.32;;;13.10;55.30;;;;;;2147392;66;20216;-77
2022/04/17 10:24:51;;;;;;;5.50;4.90;;;13.20;55.70;;;;;;2137848;66;20218;-77
2022/04/17 10:27:57;;;;;;;5.68;5.03;;;13.30;54.70;;;;;;2124454;67;20321;-77
2022/04/17 10:30:59;;;;;;;7.78;5.80;;;13.40;54.60;;;;;;2140014;66;20175;-77
2022/04/17 10:34:15;;;;;;;6.43;5.22;;;13.50;54.60;;;;;;2136283;66;20209;-77
2022/04/17 10:37:19;;;;;;;7.95;6.03;;;13.70;54.90;;;;;;2125052;67;20283;-77
2022/04/17 10:40:04;;;;;;;7.40;5.43;;;13.80;54.70;;;;;;2114874;67;21195;-76
2022/04/17 10:42:59;;;;;;;6.28;5.60;;;13.90;55.10;;;;;;2127386;67;20356;-76
2022/04/17 10:46:08;;;;;;;7.35;4.93;;;14.10;55.20;;;;;;2120753;67;20342;-77
2022/04/17 10:48:56;;;;;;;9.40;4.78;;;14.60;54.90;;;;;;2129462;67;20330;-78
2022/04/17 10:51:41;;;;;;;7.25;5.32;;;15.40;54.70;;;;;;2143798;66;20983;-78
2022/04/17 10:54:45;;;;;;;5.18;4.28;;;16.20;53.90;;;;;;2112798;67;20191;-75
2022/04/17 10:57:28;;;;;;;6.90;4.72;;;16.80;52.10;;;;;;2127010;67;20183;-78
2022/04/17 11:00:38;;;;;;;6.47;4.55;;;17.50;51.40;;;;;;2140821;67;20171;-78
2022/04/17 11:03:26;;;;;;;5.45;3.47;;;18.20;49.50;;;;;;2139893;67;20205;-78
2022/04/17 11:06:32;;;;;;;5.00;4.05;;;18.60;49.20;;;;;;2126893;67;20251;-78
2022/04/17 11:09:21;;;;;;;9.95;4.25;;;19.30;46.80;;;;;;2114216;67;20334;-77
2022/04/17 11:12:11;;;;;;;5.28;4.13;;;19.90;47.70;;;;;;2124321;67;20328;-78
2022/04/17 11:15:01;;;;;;;5.72;3.55;;;20.50;45.10;;;;;;2125090;67;20326;-78
2022/04/17 11:17:46;;;;;;;4.90;4.05;;;21.10;43.80;;;;;;2127766;67;20288;-80
2022/04/17 11:20:34;;;;;;;4.55;3.45;;;21.60;42.90;;;;;;2110946;67;20698;-73
2022/04/17 11:23:51;;;;;;;3.80;3.45;;;22.10;42.40;;;;;;2120097;67;20725;-73
2022/04/17 11:26:50;;;;;;;5.65;4.20;;;22.80;40.30;;;;;;2112421;67;20373;-73
2022/04/17 11:29:48;;;;;;;4.32;3.72;;;23.40;40.10;;;;;;2109747;67;20762;-74
2022/04/17 11:32:32;;;;;;;3.85;3.55;;;24.00;39.50;;;;;;2113596;67;20789;-80
2022/04/17 11:35:16;;;;;;;4.28;3.75;;;24.90;37.70;;;;;;2118345;67;20177;-78
2022/04/17 11:37:58;;;;;;;4.10;3.72;;;25.50;36.60;;;;;;2124848;67;20216;-78
2022/04/17 11:40:44;;;;;;;4.38;3.97;;;26.10;35.50;;;;;;2122256;67;20235;-79
2022/04/17 11:43:30;;;;;;;4.45;4.00;;;26.50;35.70;;;;;;2119631;67;20176;-76
2022/04/17 11:46:12;;;;;;;5.00;4.50;;;27.10;34.00;;;;;;2136516;67;20331;-75
2022/04/17 11:49:13;;;;;;;4.57;4.10;;;27.50;33.90;;;;;;2139461;66;20210;-76
2022/04/17 11:52:16;;;;;;;4.85;3.72;;;28.20;34.00;;;;;;2125414;67;20234;-75
2022/04/17 11:54:59;;;;;;;5.15;3.78;;;28.70;32.50;;;;;;2109906;67;20182;-76
2022/04/17 11:57:43;;;;;;;5.05;4.05;;;28.70;31.50;;;;;;2102161;67;20380;-74
2022/04/17 12:00:28;;;;;;;5.28;3.80;;;29.00;31.50;;;;;;2108235;67;20441;-73
2022/04/17 12:03:11;;;;;;;4.82;4.05;;;29.30;31.40;;;;;;2104751;67;20357;-75
2022/04/17 12:05:54;;;;;;;4.00;3.65;;;29.70;30.20;;;;;;2114587;67;20221;-73
2022/04/17 12:08:37;;;;;;;4.22;3.83;;;30.10;30.20;;;;;;2125865;67;20172;-74
2022/04/17 12:11:19;;;;;;;4.60;4.20;;;30.40;29.70;;;;;;2120224;67;20223;-77
2022/04/17 12:14:03;;;;;;;4.18;3.78;;;30.60;29.10;;;;;;2121285;67;20449;-75
2022/04/17 12:16:52;;;;;;;6.70;4.05;;;30.80;29.10;;;;;;2115149;67;20233;-76
2022/04/17 12:19:36;;;;;;;3.80;3.50;;;30.90;29.10;;;;;;2095492;68;20168;-76
2022/04/17 12:22:24;;;;;;;4.82;4.25;;;31.00;28.50;;;;;;2098226;68;20402;-76
2022/04/17 12:25:21;;;;;;;4.15;3.30;;;31.10;28.10;;;;;;2109826;67;20465;-76
2022/04/17 12:28:03;;;;;;;4.63;4.05;;;31.00;28.60;;;;;;2098136;68;20293;-76
2022/04/17 12:30:45;;;;;;;4.85;3.70;;;31.10;28.10;;;;;;2088912;68;20631;-76
2022/04/17 12:33:30;;;;;;;4.82;4.28;;;31.40;28.30;;;;;;2096774;68;20191;-76
2022/04/17 12:36:22;;;;;;;5.53;3.97;;;31.70;27.90;;;;;;2081436;68;20369;-77
2022/04/17 12:39:04;;;;;;;4.55;4.15;;;32.30;28.00;;;;;;2078421;68;20270;-76
2022/04/17 12:41:49;;;;;;;5.15;4.65;;;33.10;27.50;;;;;;2091325;68;20355;-75
2022/04/17 12:44:36;;;;;;;5.40;4.90;;;33.10;27.50;;;;;;2095190;68;20214;-76
2022/04/17 12:47:18;;;;;;;4.55;4.15;;;33.10;28.00;;;;;;2114100;67;20311;-75
2022/04/17 12:50:07;;;;;;;5.93;4.78;;;33.30;28.20;;;;;;2123955;67;20176;-77
2022/04/17 12:52:57;;;;;;;4.70;4.30;;;33.50;26.80;;;;;;2125438;67;20202;-75
2022/04/17 12:55:40;;;;;;;4.63;4.22;;;34.00;26.90;;;;;;2116894;67;20196;-75
2022/04/17 12:58:23;;;;;;;5.22;4.55;;;34.50;26.70;;;;;;2117367;67;20201;-77
2022/04/17 13:01:06;;;;;;;6.43;4.38;;;34.80;26.90;;;;;;2110267;67;20418;-76
2022/04/17 13:03:48;;;;;;;6.35;5.00;;;35.50;27.20;;;;;;2110190;67;20197;-77
2022/04/17 13:06:30;;;;;;;5.28;4.57;;;35.60;26.50;;;;;;2112671;67;20190;-75
2022/04/17 13:09:18;;;;;;;8.68;3.97;;;35.60;26.70;;;;;;2131258;66;20188;-76
2022/04/17 13:12:01;;;;;;;7.03;4.97;;;35.70;27.10;;;;;;2147666;66;20194;-76
2022/04/17 13:14:55;;;;;;;5.15;4.65;;;36.20;27.00;;;;;;2132515;67;20437;-75
2022/04/17 13:18:02;;;;;;;5.70;4.88;;;36.40;26.30;;;;;;2131299;67;20259;-75
2022/04/17 13:20:47;;;;;;;5.15;4.72;;;36.60;26.20;;;;;;1918648;66;15094076;-77
2022/04/17 13:23:30;;;;;;;5.88;5.20;;;37.00;26.20;;;;;;2129863;67;20197;-76
2022/04/17 13:26:13;;;;;;;5.97;5.38;;;37.40;26.00;;;;;;2138167;66;20210;-76
2022/04/17 13:28:57;;;;;;;5.32;4.82;;;37.60;25.80;;;;;;2144386;66;20327;-75
2022/04/17 13:31:42;;;;;;;5.43;5.00;;;37.60;25.50;;;;;;2149247;66;20233;-76
2022/04/17 13:34:24;;;;;;;5.63;5.10;;;37.80;25.70;;;;;;2135023;67;20238;-76
2022/04/17 13:40:28;;;;;;;5.72;5.28;;;37.60;25.50;;;;;;2103624;68;20190;-76
2022/04/17 13:43:11;;;;;;;4.60;4.20;;;37.70;25.20;;;;;;2111246;67;20310;-78
2022/04/17 13:45:57;;;;;;;4.85;4.45;;;38.00;25.10;;;;;;2110227;67;20346;-74
2022/04/17 13:48:51;;;;;;;5.63;5.03;;;38.20;25.00;;;;;;2103724;68;20216;-77
2022/04/17 13:51:33;;;;;;;4.57;4.18;;;38.40;24.70;;;;;;2115412;67;20736;-75
2022/04/17 13:54:21;;;;;;;4.35;3.97;;;38.20;24.90;;;;;;2112003;67;20663;-76
2022/04/17 13:57:07;;;;;;;4.45;4.03;;;38.30;24.40;;;;;;2110814;67;20403;-75
2022/04/17 13:59:50;;;;;;;4.68;4.28;;;38.40;24.50;;;;;;2104089;67;20271;-75
2022/04/17 14:02:38;;;;;;;4.50;4.05;;;38.70;24.50;;;;;;2112288;67;20173;-74
2022/04/17 14:05:21;;;;;;;5.18;4.78;;;38.70;24.40;;;;;;2115133;67;20333;-75
2022/04/17 14:08:06;;;;;;;4.13;3.83;;;39.00;24.50;;;;;;2129288;67;20304;-75
2022/04/17 14:10:50;;;;;;;10.40;9.70;;;39.20;24.50;;;;;;2135686;66;20277;-75
2022/04/17 14:13:32;;;;;;;;;;;39.30;24.00;;;;;;2130894;67;20243;-77
2022/04/17 14:16:16;;;;;;;4.95;4.55;;;39.10;24.50;;;;;;2132216;67;20208;-77
2022/04/17 14:18:59;;;;;;;5.55;5.07;;;38.80;24.30;;;;;;2144542;66;21054;-75
2022/04/17 14:21:45;;;;;;;4.90;4.50;;;38.90;24.20;;;;;;2141174;66;20378;-75
2022/04/17 14:24:26;;;;;;;4.88;4.45;;;38.80;24.10;;;;;;2134955;67;20187;-77
2022/04/17 14:27:08;;;;;;;5.00;4.57;;;38.80;24.10;;;;;;2123877;67;20274;-76
2022/04/17 14:29:49;;;;;;;5.75;5.22;;;39.20;24.20;;;;;;2132795;67;20688;-75
2022/04/17 14:32:31;;;;;;;5.22;4.78;;;39.30;24.30;;;;;;2140451;66;20383;-77
2022/04/17 14:35:15;;;;;;;5.57;4.85;;;39.20;24.30;;;;;;2139796;67;20311;-76
2022/04/17 14:37:59;;;;;;;6.97;5.28;;;39.20;25.00;;;;;;2153831;66;20847;-76
2022/04/17 14:40:40;;;;;;;6.20;5.47;;;39.10;24.20;;;;;;2132391;67;20305;-76
2022/04/17 14:43:22;;;;;;;5.38;4.97;;;38.80;24.20;;;;;;2137904;66;20270;-76
2022/04/17 14:46:05;;;;;;;5.68;5.28;;;38.30;25.10;;;;;;2139677;67;20683;-74